Time;durP1;ratioP1;P1;durP2;ratioP2;P2;SDS_P1;SDS_P2;PMS_P1;PMS_P2;Temp;Humidity;BMP_temperature;BMP_pressure;BME280_temperature;BME280_humidity;BME280_pressure;Samples;Min_cycle;Max_cycle;Signal;HPM_P1;HPM_P2
2022/01/29 00:00:33;;;;;;;11.90;5.07;;;;;;;4.53;56.20;100392.47;5004054;28;20524;-77
2022/01/29 00:02:58;;;;;;;13.07;5.63;;;;;;;4.55;56.21;100387.97;5021314;28;20033;-78
2022/01/29 00:05:24;;;;;;;10.10;5.18;;;;;;;4.73;55.64;100397.16;5004209;28;20365;-78
2022/01/29 00:07:49;;;;;;;11.30;5.70;;;;;;;4.42;55.76;100367.84;5020071;28;20034;-75
2022/01/29 00:10:15;;;;;;;9.43;4.87;;;;;;;4.39;55.81;100364.59;5022359;28;20258;-77
2022/01/29 00:12:41;;;;;;;10.45;4.95;;;;;;;4.54;55.63;100391.53;5003240;28;20030;-78
2022/01/29 00:15:07;;;;;;;8.70;4.77;;;;;;;4.46;55.72;100395.53;5003906;28;20034;-78
2022/01/29 00:17:33;;;;;;;10.47;5.20;;;;;;;4.32;55.80;100371.22;5000108;28;20015;-75
2022/01/29 00:19:59;;;;;;;9.67;4.93;;;;;;;4.38;55.84;100400.47;5020753;28;20041;-75
2022/01/29 00:22:24;;;;;;;12.70;6.30;;;;;;;4.14;56.10;100387.25;5021304;28;20207;-78
2022/01/29 00:24:50;;;;;;;13.60;6.10;;;;;;;4.27;56.20;100403.00;5021568;28;20036;-78
2022/01/29 00:27:18;;;;;;;10.87;5.97;;;;;;;4.25;56.34;100398.81;5003397;28;20025;-75
2022/01/29 00:29:44;;;;;;;17.77;7.47;;;;;;;4.35;55.92;100405.09;5013034;28;20113;-75
2022/01/29 00:32:11;;;;;;;12.23;6.73;;;;;;;4.10;56.56;100393.66;5015204;28;20385;-76
2022/01/29 00:34:37;;;;;;;12.03;5.40;;;;;;;4.11;56.70;100392.69;5003852;28;20060;-78
2022/01/29 00:37:03;;;;;;;11.07;4.83;;;;;;;4.17;56.77;100401.97;5021339;28;20037;-75
2022/01/29 00:39:28;;;;;;;10.90;5.60;;;;;;;4.02;57.00;100380.22;5020583;28;20069;-75
2022/01/29 00:41:54;;;;;;;11.00;5.63;;;;;;;3.92;57.68;100373.94;5020518;28;20084;-77
2022/01/29 00:44:20;;;;;;;12.17;5.60;;;;;;;3.88;57.68;100390.81;5020919;28;20045;-77
2022/01/29 00:46:45;;;;;;;12.90;6.17;;;;;;;3.98;57.97;100389.25;5020634;28;20307;-79
2022/01/29 00:49:13;;;;;;;12.30;5.50;;;;;;;3.83;57.80;100356.22;5021116;28;20071;-75
2022/01/29 00:51:39;;;;;;;12.47;5.53;;;;;;;3.91;57.69;100379.28;5020345;28;20049;-75
2022/01/29 00:54:05;;;;;;;11.50;5.70;;;;;;;3.91;58.20;100369.63;5020769;28;20227;-79
2022/01/29 00:56:31;;;;;;;10.57;5.30;;;;;;;3.79;58.36;100373.94;5020226;28;20057;-78
2022/01/29 00:58:56;;;;;;;16.93;7.33;;;;;;;3.56;58.81;100353.69;5021916;28;20053;-75
2022/01/29 01:01:22;;;;;;;12.20;5.77;;;;;;;3.62;59.09;100376.00;5022312;28;20045;-75
2022/01/29 01:03:47;;;;;;;13.90;6.50;;;;;;;3.48;59.36;100348.97;5020204;28;20232;-78
2022/01/29 01:06:13;;;;;;;13.43;5.93;;;;;;;3.56;59.32;100377.25;5020901;28;20037;-79
2022/01/29 01:08:38;;;;;;;14.20;5.77;;;;;;;3.49;59.99;100383.84;5002361;28;20057;-74
2022/01/29 01:11:04;;;;;;;11.70;6.10;;;;;;;3.55;59.87;100378.19;5020357;28;20034;-74
2022/01/29 01:13:34;;;;;;;10.80;5.70;;;;;;;3.69;59.42;100379.88;5019766;28;20342;-78
2022/01/29 01:16:00;;;;;;;17.43;7.13;;;;;;;3.77;59.14;100382.84;5002818;28;20319;-78
2022/01/29 01:18:26;;;;;;;16.20;7.50;;;;;;;3.63;59.43;100382.91;5019351;28;20030;-75
2022/01/29 01:20:52;;;;;;;16.63;7.10;;;;;;;3.58;59.66;100385.00;5019935;28;20054;-75
2022/01/29 01:23:18;;;;;;;14.43;6.67;;;;;;;3.53;59.04;100382.69;5019817;28;20076;-76
2022/01/29 01:25:43;;;;;;;12.37;5.80;;;;;;;3.79;58.36;100379.16;5021184;28;20401;-78
2022/01/29 01:28:09;;;;;;;10.73;5.63;;;;;;;3.59;58.58;100384.91;5002423;28;20034;-75
2022/01/29 01:30:36;;;;;;;13.40;6.30;;;;;;;3.36;59.12;100364.66;5020798;28;20046;-75
2022/01/29 01:33:02;;;;;;;14.30;6.27;;;;;;;3.68;58.65;100384.28;5019011;28;20069;-78
2022/01/29 01:35:34;;;;;;;14.73;6.57;;;;;;;3.52;58.63;100379.25;5019716;28;20034;-79
2022/01/29 01:40:38;;;;;;;11.10;5.07;;;;;;;3.74;57.92;100383.03;5020047;28;20041;-74
2022/01/29 01:43:04;;;;;;;14.70;6.13;;;;;;;3.64;58.66;100379.34;5019590;28;20042;-78
2022/01/29 01:45:30;;;;;;;13.23;6.03;;;;;;;3.55;58.94;100361.66;5020188;28;20311;-79
2022/01/29 01:47:57;;;;;;;12.57;6.43;;;;;;;3.50;59.07;100361.94;5020044;28;20040;-76
2022/01/29 01:50:24;;;;;;;10.70;5.57;;;;;;;3.47;59.08;100349.91;5019419;28;20304;-75
2022/01/29 01:52:50;;;;;;;14.10;6.30;;;;;;;3.37;58.92;100340.97;5002070;28;20022;-78
2022/01/29 01:55:15;;;;;;;13.93;6.97;;;;;;;3.63;58.59;100375.06;5019554;28;20036;-79
2022/01/29 01:57:41;;;;;;;15.70;7.33;;;;;;;3.68;58.05;100349.41;5019197;28;20057;-79
2022/01/29 02:00:08;;;;;;;20.13;8.70;;;;;;;3.51;58.89;100353.16;5011628;28;20045;-75
2022/01/29 02:02:34;;;;;;;20.90;8.33;;;;;;;3.49;59.20;100365.50;5019169;28;20045;-75
2022/01/29 02:04:59;;;;;;;14.53;7.00;;;;;;;3.45;59.17;100359.63;5019397;28;20046;-78
2022/01/29 02:07:25;;;;;;;11.90;6.37;;;;;;;3.14;60.04;100339.88;5001487;28;20060;-78
2022/01/29 02:09:50;;;;;;;13.27;6.50;;;;;;;3.41;59.47;100355.53;5013491;28;20030;-79
2022/01/29 02:12:16;;;;;;;17.60;6.83;;;;;;;3.22;60.41;100362.09;5002626;28;20104;-75
2022/01/29 02:14:44;;;;;;;12.13;6.17;;;;;;;3.26;59.75;100351.31;5002821;28;20026;-75
2022/01/29 02:17:09;;;;;;;12.00;7.00;;;;;;;3.09;60.73;100354.16;4988890;28;20030;-79
2022/01/29 02:19:36;;;;;;;14.80;7.00;;;;;;;3.03;60.61;100355.41;5001560;28;20327;-79
2022/01/29 02:22:02;;;;;;;15.40;7.20;;;;;;;3.14;60.46;100346.91;5014994;28;20033;-75
2022/01/29 02:24:27;;;;;;;15.77;7.10;;;;;;;2.92;60.19;100326.50;5022039;28;20041;-78
2022/01/29 02:26:53;;;;;;;17.50;7.60;;;;;;;3.01;60.62;100336.34;5019827;28;20275;-78
2022/01/29 02:29:20;;;;;;;15.53;7.20;;;;;;;3.13;60.20;100355.69;5019972;28;20037;-79
2022/01/29 02:31:50;;;;;;;27.00;10.57;;;;;;;3.09;60.44;100357.63;5018118;28;20049;-75
2022/01/29 02:34:16;;;;;;;15.97;7.97;;;;;;;3.22;60.03;100355.09;5018330;28;20045;-75
2022/01/29 02:36:43;;;;;;;13.97;6.63;;;;;;;3.26;59.47;100343.47;5019675;28;20034;-79
2022/01/29 02:39:12;;;;;;;15.57;6.87;;;;;;;3.35;58.50;100352.50;5018707;28;20046;-75
2022/01/29 02:41:41;;;;;;;18.00;7.73;;;;;;;3.27;58.30;100344.31;5019191;28;20064;-75
2022/01/29 02:44:08;;;;;;;14.67;6.70;;;;;;;3.56;58.01;100358.94;5019658;28;20033;-78
2022/01/29 02:46:49;;;;;;;14.33;5.50;;;;;;;3.42;58.22;100359.84;5018674;28;20034;-79
2022/01/29 02:49:17;;;;;;;14.23;6.57;;;;;;;3.63;57.19;100359.34;5019690;28;20064;-79
2022/01/29 02:51:47;;;;;;;16.63;6.70;;;;;;;3.57;57.18;100357.16;5003126;28;20284;-75
2022/01/29 02:54:13;;;;;;;11.60;5.67;;;;;;;3.57;57.21;100371.06;5019494;28;20259;-78
2022/01/29 02:56:39;;;;;;;11.30;5.37;;;;;;;3.48;56.82;100335.03;5019406;28;20079;-79
2022/01/29 02:59:04;;;;;;;11.93;5.27;;;;;;;3.57;56.80;100344.88;5013302;28;20046;-79
2022/01/29 03:01:30;;;;;;;18.90;7.53;;;;;;;3.50;56.75;100343.63;5018626;28;20056;-75
2022/01/29 03:03:56;;;;;;;20.57;6.93;;;;;;;3.48;57.08;100351.59;5019249;28;20327;-75
2022/01/29 03:06:21;;;;;;;14.20;5.20;;;;;;;3.55;56.97;100361.66;5001024;28;20227;-79
2022/01/29 03:08:46;;;;;;;9.47;5.43;;;;;;;3.30;57.35;100336.25;5001781;28;20045;-75
2022/01/29 03:11:12;;;;;;;11.10;4.80;;;;;;;3.31;57.05;100348.41;5020314;28;20038;-75
2022/01/29 03:13:38;;;;;;;9.53;5.13;;;;;;;3.31;57.31;100364.09;5019117;28;20041;-78
2022/01/29 03:16:04;;;;;;;10.93;5.00;;;;;;;3.25;57.48;100354.88;5019015;28;20026;-79
2022/01/29 03:18:29;;;;;;;9.47;4.50;;;;;;;3.34;57.38;100359.50;5018534;28;20357;-75
2022/01/29 03:20:55;;;;;;;12.00;5.20;;;;;;;3.23;57.84;100345.44;5019409;28;20261;-75
2022/01/29 03:23:20;;;;;;;12.80;5.33;;;;;;;3.35;57.13;100361.19;5018815;28;20037;-78
2022/01/29 03:25:46;;;;;;;11.23;5.50;;;;;;;3.42;57.27;100372.09;5018953;28;20304;-79
2022/01/29 03:28:11;;;;;;;11.70;5.10;;;;;;;3.32;56.73;100378.88;5019185;28;20034;-75
2022/01/29 03:30:37;;;;;;;9.53;4.70;;;;;;;3.27;57.32;100380.94;5018182;28;20278;-75
2022/01/29 03:33:02;;;;;;;9.87;5.10;;;;;;;3.14;57.39;100373.06;5018712;28;20044;-78
2022/01/29 03:35:28;;;;;;;12.77;5.10;;;;;;;3.32;57.60;100371.03;4997280;28;20370;-79
2022/01/29 03:37:53;;;;;;;11.67;5.40;;;;;;;3.20;57.21;100360.41;4998697;28;20030;-75
2022/01/29 03:40:19;;;;;;;15.03;5.77;;;;;;;3.24;57.56;100368.06;4999707;28;20236;-76
2022/01/29 03:43:00;;;;;;;13.70;6.37;;;;;;;3.23;57.45;100377.69;4999464;28;20316;-79
2022/01/29 03:45:25;;;;;;;15.60;6.07;;;;;;;3.01;57.87;100366.91;5001050;28;20037;-79
2022/01/29 03:47:51;;;;;;;13.60;5.73;;;;;;;3.04;57.93;100372.78;5002304;28;20073;-79
2022/01/29 03:50:16;;;;;;;15.40;5.67;;;;;;;2.96;57.98;100372.44;5003029;28;20038;-75
2022/01/29 03:52:41;;;;;;;19.57;6.40;;;;;;;3.05;57.55;100379.69;5001873;28;20041;-75
2022/01/29 03:55:07;;;;;;;16.00;7.30;;;;;;;3.10;57.02;100374.16;5002829;28;20096;-79
2022/01/29 03:57:33;;;;;;;9.93;5.17;;;;;;;3.04;57.23;100370.16;5002082;28;20327;-79
2022/01/29 03:59:58;;;;;;;15.73;5.80;;;;;;;3.13;56.75;100363.53;5001135;28;20041;-75
2022/01/29 04:02:24;;;;;;;14.37;6.30;;;;;;;3.14;57.56;100379.13;5001993;28;20034;-75
2022/01/29 04:04:49;;;;;;;13.17;5.60;;;;;;;3.24;57.18;100389.00;5001657;28;20112;-78
2022/01/29 04:07:15;;;;;;;12.87;5.60;;;;;;;3.32;57.14;100387.56;5001412;28;20033;-79
2022/01/29 04:09:47;;;;;;;10.67;4.63;;;;;;;3.44;56.78;100388.53;5001768;28;20072;-79
2022/01/29 04:12:13;;;;;;;12.23;5.27;;;;;;;3.49;56.70;100378.59;5001261;28;20327;-75
2022/01/29 04:14:39;;;;;;;13.57;6.57;;;;;;;3.55;56.94;100387.84;5002636;28;20355;-74
2022/01/29 04:17:05;;;;;;;15.40;6.47;;;;;;;3.65;56.75;100394.13;5001726;28;20094;-79
2022/01/29 04:19:32;;;;;;;16.33;7.00;;;;;;;3.55;56.75;100367.72;5000645;28;20026;-79
2022/01/29 04:21:57;;;;;;;15.50;6.57;;;;;;;3.65;56.89;100388.91;5001807;28;20034;-75
2022/01/29 04:24:23;;;;;;;19.57;7.30;;;;;;;3.58;57.69;100390.25;5001143;28;20037;-75
2022/01/29 04:26:48;;;;;;;12.70;6.33;;;;;;;3.69;56.67;100383.34;5001362;28;20041;-79
2022/01/29 04:29:14;;;;;;;15.73;6.07;;;;;;;3.77;56.77;100395.94;5001034;28;20041;-79
2022/01/29 04:32:08;;;;;;;13.53;6.60;;;;;;;3.59;57.80;100405.00;5001047;28;20339;-75
2022/01/29 04:34:26;;;;;;;17.40;8.10;;;;;;;3.37;58.01;100406.44;5000392;28;20042;-78
2022/01/29 04:36:52;;;;;;;32.97;11.50;;;;;;;3.31;58.47;100411.22;5017625;28;20045;-79
2022/01/29 04:39:17;;;;;;;19.67;9.17;;;;;;;3.19;59.26;100407.63;5007580;28;20033;-79
2022/01/29 04:41:43;;;;;;;21.93;8.30;;;;;;;3.16;59.61;100405.19;5004271;28;20026;-75
2022/01/29 04:44:08;;;;;;;24.40;8.13;;;;;;;3.03;59.12;100393.81;5020605;28;20030;-75
2022/01/29 04:46:34;;;;;;;24.23;10.67;;;;;;;3.03;59.91;100406.91;5021629;28;20021;-79
2022/01/29 04:48:59;;;;;;;16.70;8.13;;;;;;;3.08;59.45;100402.22;5003013;28;20036;-75
2022/01/29 04:51:25;;;;;;;24.90;9.73;;;;;;;3.17;59.54;100405.09;5021362;28;20052;-74
2022/01/29 04:53:51;;;;;;;22.07;10.77;;;;;;;2.95;59.73;100393.47;5020178;28;20350;-78
2022/01/29 04:56:16;;;;;;;16.93;7.83;;;;;;;2.78;59.52;100357.91;5022387;28;20032;-79
2022/01/29 04:58:42;;;;;;;15.27;7.50;;;;;;;3.15;58.86;100409.59;5003631;28;20124;-79
2022/01/29 05:01:08;;;;;;;18.20;8.03;;;;;;;3.05;59.57;100407.63;5003555;28;20057;-74
2022/01/29 05:03:34;;;;;;;21.97;9.43;;;;;;;2.97;59.46;100408.13;5019582;28;20025;-78
2022/01/29 05:06:00;;;;;;;21.37;10.27;;;;;;;3.09;59.50;100409.97;5020926;28;20089;-78
2022/01/29 05:08:26;;;;;;;27.50;13.90;;;;;;;3.06;59.44;100404.91;5004109;28;20038;-79
2022/01/29 05:10:53;;;;;;;21.13;11.37;;;;;;;3.16;59.30;100413.91;5020690;28;20040;-75
2022/01/29 05:13:22;;;;;;;30.43;13.17;;;;;;;3.19;58.90;100412.84;5020111;28;20037;-76
2022/01/29 05:26:50;;;;;;;18.35;8.63;;;;;;;3.10;58.86;100413.41;5019933;28;20068;-79
2022/01/29 05:29:16;;;;;;;18.27;8.40;;;;;;;3.26;58.24;100436.84;5018554;28;20050;-79
2022/01/29 05:31:41;;;;;;;22.87;8.40;;;;;;;3.42;58.16;100445.41;5020954;28;20068;-75
2022/01/29 05:34:07;;;;;;;21.93;9.00;;;;;;;3.35;58.24;100434.47;5019539;28;20080;-78
2022/01/29 05:36:32;;;;;;;22.17;10.40;;;;;;;3.25;58.82;100429.94;5002451;28;20343;-79
2022/01/29 05:38:58;;;;;;;23.53;8.80;;;;;;;3.19;58.48;100415.47;5020646;28;20315;-75
2022/01/29 05:41:23;;;;;;;19.07;8.27;;;;;;;3.02;59.27;100415.69;5019392;28;20079;-75
2022/01/29 05:43:49;;;;;;;18.73;8.73;;;;;;;3.31;59.15;100432.16;5019111;28;20092;-78
2022/01/29 05:46:16;;;;;;;18.07;8.90;;;;;;;3.18;59.33;100432.13;5020331;28;20018;-78
2022/01/29 05:48:43;;;;;;;17.47;8.37;;;;;;;3.27;59.20;100446.38;5020414;28;20037;-75
2022/01/29 05:51:09;;;;;;;18.83;9.20;;;;;;;3.17;59.67;100428.66;5019147;28;20311;-76
2022/01/29 05:53:35;;;;;;;22.07;10.07;;;;;;;3.38;58.63;100443.91;5020151;28;20084;-77
2022/01/29 05:56:01;;;;;;;22.47;10.20;;;;;;;3.56;58.35;100453.19;5001578;28;20025;-78
2022/01/29 05:58:27;;;;;;;18.10;9.73;;;;;;;3.46;57.85;100429.38;5019398;28;20033;-78
2022/01/29 06:00:52;;;;;;;21.20;10.53;;;;;;;3.55;57.74;100450.69;5019028;28;20267;-75
2022/01/29 06:03:18;;;;;;;19.43;10.20;;;;;;;3.65;58.09;100467.47;5018515;28;20061;-76
2022/01/29 06:05:44;;;;;;;20.93;9.77;;;;;;;3.45;58.38;100443.41;5019444;28;20048;-78
2022/01/29 06:08:09;;;;;;;16.77;8.17;;;;;;;4.01;57.36;100472.06;5019135;28;20041;-78
2022/01/29 06:10:35;;;;;;;18.57;8.33;;;;;;;3.96;57.38;100477.59;5019439;28;20045;-75
2022/01/29 06:13:03;;;;;;;15.77;6.90;;;;;;;4.05;57.16;100476.13;5002405;28;20335;-75
2022/01/29 06:15:31;;;;;;;18.50;8.13;;;;;;;4.27;56.01;100470.31;5013482;28;20313;-78
2022/01/29 06:17:56;;;;;;;13.57;7.23;;;;;;;4.30;56.29;100473.56;5019040;28;20096;-78
2022/01/29 06:20:22;;;;;;;14.33;6.33;;;;;;;4.37;56.22;100480.06;5020069;28;20213;-80
2022/01/29 06:22:48;;;;;;;12.25;6.22;;;;;;;4.42;56.14;100485.00;5020035;28;20065;-75
2022/01/29 06:25:13;;;;;;;12.50;6.53;;;;;;;4.53;55.58;100474.63;5019672;28;20045;-74
2022/01/29 06:27:39;;;;;;;12.63;5.60;;;;;;;4.55;55.34;100485.84;5019789;28;20053;-77
2022/01/29 06:30:05;;;;;;;12.67;6.73;;;;;;;4.51;55.36;100488.78;5019155;28;20069;-79
2022/01/29 06:32:30;;;;;;;17.20;7.20;;;;;;;4.24;55.80;100494.97;5001180;28;20219;-79
2022/01/29 06:34:56;;;;;;;16.60;7.95;;;;;;;4.15;55.97;100485.06;5019673;28;20109;-76
2022/01/29 06:37:22;;;;;;;16.37;7.93;;;;;;;4.10;56.43;100492.41;5018643;28;20052;-76
2022/01/29 06:39:47;;;;;;;15.93;7.77;;;;;;;4.20;55.38;100482.16;5001719;28;20033;-78
2022/01/29 06:42:13;;;;;;;18.85;7.85;;;;;;;4.19;55.76;100499.69;5018679;28;20088;-79
2022/01/29 06:44:38;;;;;;;18.33;8.03;;;;;;;4.39;55.60;100495.72;5018801;28;20034;-77
2022/01/29 06:47:04;;;;;;;18.80;7.35;;;;;;;4.39;55.39;100508.81;5019823;28;20101;-76
2022/01/29 06:49:29;;;;;;;19.10;7.60;;;;;;;4.48;55.21;100514.28;5018365;28;20065;-78
2022/01/29 06:51:55;;;;;;;19.13;6.87;;;;;;;4.44;55.33;100494.44;5000717;28;20041;-79
2022/01/29 06:54:20;;;;;;;21.33;9.17;;;;;;;4.64;55.13;100506.19;5001667;28;20026;-79
2022/01/29 06:56:46;;;;;;;18.60;7.90;;;;;;;4.67;54.79;100516.47;5015970;28;20022;-79
2022/01/29 06:59:11;;;;;;;14.77;8.10;;;;;;;4.74;55.00;100517.72;5019343;28;20030;-79
2022/01/29 07:01:37;;;;;;;16.80;8.00;;;;;;;4.63;54.67;100506.31;5019352;28;20046;-75
2022/01/29 07:04:03;;;;;;;13.67;6.67;;;;;;;4.95;54.13;100509.31;5018159;28;20332;-75
2022/01/29 07:06:28;;;;;;;15.37;6.57;;;;;;;4.93;54.29;100513.81;5019096;28;20096;-79
2022/01/29 07:08:54;;;;;;;16.13;7.40;;;;;;;4.91;54.38;100515.72;5002043;28;20080;-79
2022/01/29 07:11:22;;;;;;;15.77;6.70;;;;;;;4.90;54.11;100493.88;5002804;28;20025;-77
2022/01/29 07:13:48;;;;;;;16.70;7.85;;;;;;;5.17;53.48;100522.59;5019587;28;20050;-75
2022/01/29 07:16:13;;;;;;;13.80;6.60;;;;;;;5.29;53.71;100516.50;5021083;28;20093;-78
2022/01/29 07:18:39;;;;;;;12.90;6.65;;;;;;;5.58;52.43;100511.78;5005691;28;20100;-79
2022/01/29 07:21:04;;;;;;;11.30;5.78;;;;;;;5.71;52.62;100522.25;5022183;28;20038;-79
2022/01/29 07:23:30;;;;;;;10.00;5.68;;;;;;;5.84;51.39;100503.78;5022860;28;20236;-79
2022/01/29 07:25:55;;;;;;;17.85;7.03;;;;;;;6.13;51.73;100520.03;5016673;28;20018;-79
2022/01/29 07:28:20;;;;;;;14.23;6.53;;;;;;;6.19;50.76;100502.03;5005498;28;20021;-75
2022/01/29 07:30:46;;;;;;;14.73;6.50;;;;;;;6.18;51.38;100518.75;5023679;28;20047;-78
2022/01/29 07:33:11;;;;;;;16.17;7.07;;;;;;;6.49;51.17;100529.63;5006539;28;20055;-81
2022/01/29 07:35:37;;;;;;;18.50;6.55;;;;;;;6.42;50.26;100516.09;5022579;28;20049;-81
2022/01/29 07:38:02;;;;;;;14.73;6.82;;;;;;;6.61;50.12;100529.50;5021674;28;20033;-78
2022/01/29 07:40:28;;;;;;;22.15;8.43;;;;;;;6.35;51.28;100505.19;5022084;28;20222;-78
2022/01/29 07:42:53;;;;;;;17.88;7.28;;;;;;;6.52;50.32;100539.91;5022542;28;20045;-81
2022/01/29 07:45:19;;;;;;;17.05;7.95;;;;;;;6.22;51.13;100514.94;5004481;28;20069;-81
2022/01/29 07:47:44;;;;;;;26.55;8.75;;;;;;;6.16;51.24;100523.28;5022706;28;20366;-81
2022/01/29 07:50:10;;;;;;;29.17;10.32;;;;;;;6.35;51.33;100520.97;5021638;28;20426;-81
2022/01/29 07:52:35;;;;;;;19.92;7.38;;;;;;;6.48;51.16;100520.03;5021493;28;20038;-81
2022/01/29 07:55:01;;;;;;;16.95;7.97;;;;;;;6.59;50.92;100538.47;5016644;28;20038;-77
2022/01/29 07:57:27;;;;;;;17.52;8.35;;;;;;;6.82;50.25;100536.72;5021376;28;20022;-80
2022/01/29 07:59:53;;;;;;;16.02;8.25;;;;;;;7.15;50.13;100541.13;5013023;28;20193;-81
2022/01/29 08:02:19;;;;;;;13.65;6.43;;;;;;;6.90;50.18;100510.63;5004777;28;20021;-81
2022/01/29 08:04:44;;;;;;;12.90;5.90;;;;;;;7.16;49.54;100550.72;5021779;28;20378;-81
2022/01/29 08:07:09;;;;;;;16.08;6.47;;;;;;;6.95;49.81;100551.44;5020325;28;20034;-79
2022/01/29 08:09:35;;;;;;;21.73;7.97;;;;;;;6.63;50.37;100522.34;5015673;28;20249;-77
2022/01/29 08:12:00;;;;;;;17.65;6.32;;;;;;;6.63;51.18;100534.66;5020937;28;20320;-78
2022/01/29 08:14:26;;;;;;;13.27;7.43;;;;;;;6.73;51.37;100554.06;5021233;28;20345;-81
2022/01/29 08:16:51;;;;;;;17.02;7.05;;;;;;;6.95;51.66;100537.44;5006119;28;20093;-81
2022/01/29 08:19:17;;;;;;;19.83;9.13;;;;;;;7.21;50.26;100544.13;5007057;28;20223;-78
2022/01/29 08:21:42;;;;;;;22.27;9.70;;;;;;;7.25;49.99;100536.81;5024055;28;20258;-78
2022/01/29 08:24:08;;;;;;;18.67;7.35;;;;;;;7.29;49.84;100530.38;5024583;28;20068;-81
2022/01/29 08:26:33;;;;;;;13.18;7.35;;;;;;;7.52;49.30;100552.25;5024683;28;20033;-81
2022/01/29 08:28:59;;;;;;;13.82;7.32;;;;;;;7.50;48.92;100552.38;5021793;28;20037;-81
2022/01/29 08:31:24;;;;;;;10.88;6.40;;;;;;;7.74;48.38;100549.56;5024224;28;20089;-81
2022/01/29 08:33:50;;;;;;;15.93;8.38;;;;;;;7.83;48.52;100546.19;5006759;28;20161;-81
2022/01/29 08:36:15;;;;;;;17.25;6.57;;;;;;;7.83;48.60;100559.38;5023610;28;20067;-81
2022/01/29 08:38:41;;;;;;;15.27;6.43;;;;;;;8.20;47.76;100559.00;5022976;28;20018;-81
2022/01/29 08:41:06;;;;;;;14.82;6.38;;;;;;;8.57;46.32;100565.56;5024220;28;20035;-78
2022/01/29 08:43:33;;;;;;;13.52;6.15;;;;;;;8.32;46.71;100566.75;5023757;28;20243;-81
2022/01/29 08:45:59;;;;;;;14.68;6.32;;;;;;;8.24;47.39;100560.41;5006553;28;20021;-81
2022/01/29 08:48:25;;;;;;;13.93;6.97;;;;;;;8.02;47.68;100551.63;5023698;28;20030;-81
2022/01/29 08:50:51;;;;;;;16.15;7.32;;;;;;;7.85;47.45;100557.44;5022301;28;20042;-81
2022/01/29 08:53:19;;;;;;;10.85;6.20;;;;;;;8.11;46.99;100573.78;5022809;28;20026;-81
2022/01/29 08:55:44;;;;;;;19.48;8.90;;;;;;;8.46;47.13;100575.34;5022712;28;20315;-81
2022/01/29 08:58:11;;;;;;;17.35;7.68;;;;;;;8.41;46.50;100570.47;5023513;28;20037;-81
2022/01/29 09:00:40;;;;;;;10.38;5.70;;;;;;;8.39;46.99;100575.03;5022441;28;20041;-81
2022/01/29 09:03:06;;;;;;;16.33;7.68;;;;;;;8.55;46.76;100571.94;5023622;28;20034;-78
2022/01/29 09:05:32;;;;;;;23.40;6.85;;;;;;;8.59;46.83;100568.91;5023214;28;20223;-78
2022/01/29 09:07:58;;;;;;;14.90;7.07;;;;;;;8.49;46.65;100583.00;5022894;28;20045;-78
2022/01/29 09:10:23;;;;;;;16.42;5.60;;;;;;;8.15;46.78;100572.56;5023209;28;20099;-81
2022/01/29 09:12:49;;;;;;;9.20;4.82;;;;;;;8.15;46.80;100582.28;5023383;28;20092;-81
2022/01/29 09:15:14;;;;;;;6.68;4.28;;;;;;;8.04;46.04;100571.78;5023472;28;20034;-81
2022/01/29 09:17:41;;;;;;;10.30;5.53;;;;;;;8.01;46.93;100555.22;5023273;28;20319;-78
2022/01/29 09:20:10;;;;;;;13.10;5.50;;;;;;;8.41;46.77;100575.75;5023411;28;20080;-76
2022/01/29 09:22:37;;;;;;;12.90;5.72;;;;;;;8.67;46.61;100575.34;5022096;28;20057;-79
2022/01/29 09:25:03;;;;;;;11.43;6.10;;;;;;;8.67;46.04;100573.56;5005632;28;20318;-79
2022/01/29 09:27:29;;;;;;;10.88;5.82;;;;;;;8.82;44.99;100579.34;5023939;28;20211;-79
2022/01/29 09:29:54;;;;;;;15.02;7.38;;;;;;;8.72;45.49;100552.88;5023404;28;20083;-76
2022/01/29 09:32:20;;;;;;;8.57;5.32;;;;;;;8.74;45.29;100566.78;5023028;28;20030;-75
2022/01/29 09:34:45;;;;;;;10.15;5.45;;;;;;;8.79;45.18;100563.75;5023619;28;20046;-79
2022/01/29 09:37:11;;;;;;;9.73;5.30;;;;;;;8.89;44.24;100560.19;5023347;28;20223;-78
2022/01/29 09:39:37;;;;;;;9.43;5.25;;;;;;;8.90;44.41;100550.47;5023108;28;20072;-79
2022/01/29 09:42:03;;;;;;;9.90;5.30;;;;;;;9.00;44.42;100543.41;5005420;28;20029;-79
2022/01/29 09:44:30;;;;;;;10.75;5.60;;;;;;;8.79;44.08;100534.72;5005482;28;20034;-79
2022/01/29 09:46:56;;;;;;;11.02;5.50;;;;;;;8.76;44.69;100545.53;5022827;28;20029;-79
2022/01/29 09:49:21;;;;;;;9.23;5.30;;;;;;;8.84;44.72;100557.09;5005273;28;20036;-76
2022/01/29 09:51:47;;;;;;;15.02;5.75;;;;;;;8.90;44.82;100546.03;5023260;28;20046;-76
2022/01/29 09:54:12;;;;;;;11.20;5.35;;;;;;;8.93;44.50;100551.03;5005820;28;20026;-79
2022/01/29 09:56:37;;;;;;;8.30;4.75;;;;;;;8.49;44.15;100517.88;5022917;28;20064;-79
2022/01/29 09:59:03;;;;;;;9.88;5.55;;;;;;;8.58;44.39;100505.69;5021359;28;20036;-79
2022/01/29 10:01:29;;;;;;;9.25;4.72;;;;;;;8.85;44.71;100542.94;5022342;28;20025;-79
2022/01/29 10:04:00;;;;;;;11.88;5.57;;;;;;;8.98;44.31;100533.97;5022358;28;20038;-79
2022/01/29 10:06:26;;;;;;;13.93;6.40;;;;;;;9.05;43.80;100553.59;5022410;28;20030;-79
2022/01/29 10:08:52;;;;;;;11.40;5.60;;;;;;;8.97;43.43;100541.03;5022660;28;20065;-79
2022/01/29 10:11:20;;;;;;;7.80;4.40;;;;;;;9.21;42.63;100554.78;5022463;28;20037;-76
2022/01/29 10:13:47;;;;;;;7.32;4.25;;;;;;;9.43;41.58;100553.75;5022201;28;20379;-78
2022/01/29 10:16:20;;;;;;;8.20;4.07;;;;;;;9.20;41.04;100555.75;5022340;28;20076;-78
2022/01/29 10:19:00;;;;;;;9.40;5.20;;;;;;;8.94;43.22;100541.31;5022371;28;20026;-79
2022/01/29 10:21:30;;;;;;;12.90;6.28;;;;;;;8.81;43.76;100544.16;5021146;28;20025;-79
2022/01/29 10:24:10;;;;;;;7.40;4.78;;;;;;;8.93;43.24;100547.56;4998831;28;20068;-79
2022/01/29 10:26:38;;;;;;;9.57;4.28;;;;;;;8.99;42.63;100535.63;5022468;28;20070;-79
2022/01/29 10:29:07;;;;;;;6.82;4.10;;;;;;;9.01;40.96;100555.66;5020936;28;20025;-79
2022/01/29 10:32:00;;;;;;;11.88;4.78;;;;;;;9.11;41.41;100548.63;5022117;28;20044;-76
2022/01/29 10:34:33;;;;;;;16.50;7.68;;;;;;;8.80;42.19;100502.88;5020118;28;20038;-78
2022/01/29 10:37:26;;;;;;;13.55;7.63;;;;;;;9.02;42.79;100532.72;5017376;28;20109;-79
2022/01/29 10:40:01;;;;;;;9.98;5.32;;;;;;;9.08;42.59;100545.41;5002792;28;20428;-76
2022/01/29 10:42:31;;;;;;;10.77;4.38;;;;;;;8.75;42.73;100520.94;5002243;28;20099;-76
2022/01/29 10:45:01;;;;;;;7.32;4.60;;;;;;;8.84;42.79;100549.19;5001424;28;20077;-79
2022/01/29 10:47:27;;;;;;;9.52;6.18;;;;;;;8.89;43.16;100544.34;5002497;28;20061;-79
2022/01/29 10:49:59;;;;;;;11.57;5.57;;;;;;;8.91;42.90;100541.56;5002864;28;20038;-78
2022/01/29 10:52:31;;;;;;;12.05;7.43;;;;;;;9.00;42.51;100543.41;5004096;28;20026;-79
2022/01/29 10:55:05;;;;;;;12.38;6.18;;;;;;;8.80;42.69;100529.28;5006511;28;20084;-76
2022/01/29 10:57:49;;;;;;;;;;;;;;;8.91;42.76;100546.84;5007172;28;20034;-76
2022/01/29 11:00:24;;;;;;;11.38;5.75;;;;;;;8.94;42.23;100547.44;5006892;28;19925;-79
2022/01/29 11:02:51;;;;;;;7.60;4.05;;;;;;;8.95;41.75;100533.25;5006652;28;20038;-78
2022/01/29 11:05:17;;;;;;;10.75;5.72;;;;;;;8.97;40.80;100533.13;5022617;28;20062;-80
2022/01/29 11:07:51;;;;;;;7.35;4.55;;;;;;;8.94;40.90;100528.94;5006371;28;20042;-76
2022/01/29 11:10:17;;;;;;;4.53;2.53;;;;;;;9.05;39.55;100525.38;5006312;28;20308;-78
2022/01/29 11:12:45;;;;;;;5.50;3.47;;;;;;;9.39;39.61;100538.31;5006178;28;20026;-79
2022/01/29 11:15:11;;;;;;;6.85;3.38;;;;;;;9.55;39.81;100538.63;5005121;28;20057;-79
2022/01/29 11:17:38;;;;;;;5.93;3.65;;;;;;;9.65;38.65;100523.59;5004951;28;20048;-79
2022/01/29 11:20:04;;;;;;;7.80;3.45;;;;;;;9.57;39.34;100528.75;5021192;28;20366;-79
2022/01/29 11:22:36;;;;;;;8.73;4.50;;;;;;;9.49;38.69;100528.59;5004920;28;20303;-77
2022/01/29 11:25:05;;;;;;;6.50;3.35;;;;;;;9.63;39.17;100519.44;5021167;28;20118;-77
2022/01/29 11:27:33;;;;;;;10.88;5.95;;;;;;;9.27;39.75;100516.41;5005877;28;20026;-79
2022/01/29 11:30:11;;;;;;;7.75;4.85;;;;;;;9.42;40.02;100519.53;5004627;28;20046;-79
2022/01/29 11:32:43;;;;;;;8.90;4.03;;;;;;;9.63;38.97;100527.38;5004556;28;20235;-79
2022/01/29 11:35:14;;;;;;;5.78;4.30;;;;;;;9.51;39.98;100527.47;5001970;28;20030;-79
2022/01/29 11:37:46;;;;;;;9.20;4.35;;;;;;;9.52;39.73;100521.22;5016834;28;20105;-80